CW9343 Weather Reports


Display with metric or nautical units.
time (UTC)temp
F
wind
direction
speed
MPH
gust
MPH
rain 1hr
in
rain 24hr
in
rain mn
in
humidity
%
barometer
mb
20180719001328 82 67 3.0 4.0 0.00 0.02 0.00 50 1013.3
20180718235328 83 43 3.0 9.0 0.00 0.02 0.00 53 1013.2
20180718233328 84 52 3.0 9.0 0.00 0.02 0.00 51 1013.1
20180718230328 84 320 3.0 6.0 0.00 0.02 0.00 52 1012.8
20180718225328 84 85 3.0 9.0 0.00 0.02 0.00 51 1012.7
20180718224328 84 52 3.0 9.0 0.00 0.02 0.00 51 1012.7
20180718223328 85 42 3.0 8.0 0.00 0.02 0.00 52 1012.7
20180718222328 85 67 3.0 8.0 0.00 0.02 0.00 52 1012.6
20180718221328 85 71 3.0 8.0 0.00 0.02 0.00 52 1012.5
20180718220328 86 58 3.0 5.0 0.00 0.02 0.00 52 1012.4
20180718215328 86 79 3.0 10.0 0.00 0.02 0.00 52 1012.2
20180718214328 86 312 3.0 10.0 0.00 0.02 0.00 53 1012.2
20180718213327 86 62 3.0 10.0 0.00 0.02 0.00 52 1012.1
20180718212328 86 330 3.0 10.0 0.00 0.02 0.00 55 1012.1
20180718211328 86 73 3.0 8.0 0.00 0.02 0.00 55 1012.0
20180718201328 86 222 3.0 4.0 0.00 0.02 0.00 61 1012.4
20180718195328 86 70 3.0 10.0 0.00 0.02 0.00 59 1012.6
20180718194328 86 322 3.0 9.0 0.00 0.02 0.00 58 1012.6
20180718193328 86 43 3.0 9.0 0.00 0.02 0.00 59 1012.6
20180718191328 86 341 3.0 8.0 0.00 0.02 0.00 59 1012.7
20180718190328 86 297 3.0 7.0 0.00 0.02 0.00 57 1012.7
20180718185328 86 299 3.0 7.0 0.00 0.02 0.00 62 1012.6
20180718184328 87 57 3.0 7.0 0.00 0.02 0.00 59 1012.7
20180718180328 85 314 3.0 6.0 0.00 0.02 0.00 60 1012.6
20180718175328 85 328 3.0 15.0 0.00 0.02 0.00 59 1012.5
20180718174328 84 56 3.0 15.0 0.00 0.02 0.00 61 1012.5
20180718173328 84 317 3.0 15.0 0.00 0.02 0.00 62 1012.5
20180718170328 84 39 3.0 5.0 0.00 0.02 0.00 65 1012.7
20180718165328 84 50 3.0 10.0 0.00 0.02 0.00 68 1012.7
20180718164328 84 29 4.0 10.0 0.00 0.02 0.00 68 1012.6
20180718163328 84 292 3.0 10.0 0.00 0.02 0.00 68 1012.6
20180718162328 84 4 3.0 10.0 0.00 0.02 0.00 67 1012.8
20180718161328 84 303 3.0 10.0 0.00 0.02 0.00 68 1012.8
20180718155328 84 73 3.0 13.0 0.00 0.02 0.00 68 1012.9
20180718153328 83 337 3.0 13.0 0.00 0.02 0.00 69 1012.9
20180718152328 83 279 3.0 13.0 0.00 0.02 0.00 70 1012.7
20180718151328 83 49 3.0 13.0 0.00 0.02 0.00 70 1012.7
20180718143328 82 27 3.0 15.0 0.01 0.03 0.01 75 1012.5
20180718142328 82 61 3.0 15.0 0.00 0.02 0.00 76 1012.4
20180718141328 82 311 3.0 12.0 0.00 0.02 0.00 76 1012.5
20180718140328 82 330 4.0 12.0 0.00 0.02 0.00 76 1012.5
20180718135328 82 359 3.0 12.0 0.00 0.02 0.00 77 1012.7
20180718133328 82 34 3.0 12.0 0.00 0.02 0.00 78 1012.9
20180718125328 79 57 3.0 9.0 0.00 0.02 0.00 85 1012.7
20180718124328 78 35 3.0 7.0 0.00 0.02 0.00 86 1012.8
20180718122328 77 345 3.0 7.0 0.00 0.02 0.00 88 1012.6
20180718113328 75 298 3.0 7.0 0.00 0.02 0.00 94 1011.8
20180718112328 75 336 3.0 4.0 0.00 0.02 0.00 95 1011.7
20180718110328 74 308 3.0 4.0 0.00 0.02 0.00 96 1011.5
20180718105328 74 307 3.0 4.0 0.00 0.02 0.00 97 1011.4
20180718104328 74 347 3.0 4.0 0.00 0.02 0.00 97 1011.2
20180718103329 74 339 3.0 4.0 0.00 0.02 0.00 97 1011.1
20180718102328 73 313 3.0 4.0 0.00 0.02 0.00 97 1011.0
20180718095328 73 258 3.0 4.0 0.00 0.02 0.00 97 1010.8
20180718094328 73 226 3.0 4.0 0.00 0.02 0.00 96 1010.7
20180718093328 73 226 3.0 4.0 0.00 0.02 0.00 96 1010.6
20180718090328 74 223 3.0 4.0 0.00 0.02 0.00 96 1010.3
20180718085328 74 222 3.0 4.0 0.00 0.02 0.00 96 1010.4
20180718084328 74 261 3.0 4.0 0.00 0.02 0.00 96 1010.1
20180718083328 74 260 3.0 4.0 0.00 0.02 0.00 96 1010.0
20180718081328 74 293 3.0 4.0 0.00 0.02 0.00 96 1010.0
20180718080328 74 245 3.0 4.0 0.00 0.02 0.00 96 1009.9
20180718074328 74 274 3.0 4.0 0.00 0.02 0.00 96 1009.9
20180718072328 74 278 3.0 4.0 0.00 0.02 0.00 96 1010.1
20180718063328 74 272 3.0 4.0 0.00 0.02 0.00 97 1010.0
20180718062328 74 280 3.0 4.0 0.00 0.02 0.00 97 1010.0
20180718061328 74 314 3.0 4.0 0.00 0.02 0.00 96 1010.2
20180718055328 74 277 3.0 4.0 0.00 0.02 0.00 96 1010.2
20180718054328 74 241 3.0 4.0 0.00 0.02 0.00 96 1010.3
20180718050328 74 286 3.0 4.0 0.00 0.02 0.00 96 1010.4
20180718045328 74 246 3.0 4.0 0.00 0.02 0.00 96 1010.5
20180718044328 75 250 3.0 4.0 0.00 0.02 0.00 96 1010.6
20180718043328 75 301 3.0 4.0 0.00 0.02 0.00 96 1010.7
20180718035328 75 163 3.0 4.0 0.02 0.02 0.02 94 1010.9
20180718034329 76 193 3.0 4.0 0.02 0.02 0.02 94 1010.8
20180718024329 79 277 3.0 14.0 0.02 0.02 0.02 90 1010.4
20180718023328 79 223 3.0 14.0 0.01 0.01 0.01 87 1010.8
20180718022329 80 264 3.0 14.0 0.00 0.00 0.00 85 1010.0
20180718020329 81 215 3.0 4.0 0.00 0.00 0.00 87 1010.4
20180718015329 81 200 3.0 8.0 0.00 0.00 0.00 86 1010.1
20180718014329 82 181 3.0 8.0 0.00 0.00 0.00 85 1009.9
20180718010329 83 184 3.0 8.0 0.00 0.00 0.00 83 1009.9
20180718005328 83 78 3.0 10.0 0.00 0.00 0.00 83 1009.9
20180718004329 84 140 3.0 10.0 0.00 0.00 0.00 82 1009.9